sensor_id;sensor_type;location;lat;lon;timestamp;P1;durP1;ratioP1;P2;durP2;ratioP2
11197;SDS011;5655;48.744;9.162;2023-09-12T00:00:53;16.93;;;8.83;;
11197;SDS011;5655;48.744;9.162;2023-09-12T00:03:21;12.27;;;8.77;;
11197;SDS011;5655;48.744;9.162;2023-09-12T00:05:54;14.63;;;8.90;;
11197;SDS011;5655;48.744;9.162;2023-09-12T00:08:21;12.63;;;8.88;;
11197;SDS011;5655;48.744;9.162;2023-09-12T00:10:46;18.10;;;9.32;;
11197;SDS011;5655;48.744;9.162;2023-09-12T00:13:12;13.43;;;9.55;;
11197;SDS011;5655;48.744;9.162;2023-09-12T00:15:37;16.42;;;9.23;;
11197;SDS011;5655;48.744;9.162;2023-09-12T00:18:03;15.23;;;9.20;;
11197;SDS011;5655;48.744;9.162;2023-09-12T00:20:29;14.98;;;9.52;;
11197;SDS011;5655;48.744;9.162;2023-09-12T00:22:54;21.65;;;9.63;;
11197;SDS011;5655;48.744;9.162;2023-09-12T00:25:21;20.50;;;9.60;;
11197;SDS011;5655;48.744;9.162;2023-09-12T00:27:46;17.17;;;9.77;;
11197;SDS011;5655;48.744;9.162;2023-09-12T00:30:13;14.57;;;9.13;;
11197;SDS011;5655;48.744;9.162;2023-09-12T00:32:39;15.32;;;9.80;;
11197;SDS011;5655;48.744;9.162;2023-09-12T00:35:04;15.63;;;9.40;;
11197;SDS011;5655;48.744;9.162;2023-09-12T00:37:30;14.75;;;8.93;;
11197;SDS011;5655;48.744;9.162;2023-09-12T00:39:55;17.30;;;10.07;;
11197;SDS011;5655;48.744;9.162;2023-09-12T00:42:21;12.10;;;9.38;;
11197;SDS011;5655;48.744;9.162;2023-09-12T00:44:46;16.83;;;9.85;;
11197;SDS011;5655;48.744;9.162;2023-09-12T00:47:11;19.33;;;9.80;;
11197;SDS011;5655;48.744;9.162;2023-09-12T00:49:38;16.83;;;9.93;;
11197;SDS011;5655;48.744;9.162;2023-09-12T00:52:04;15.30;;;9.70;;
11197;SDS011;5655;48.744;9.162;2023-09-12T00:54:30;14.45;;;9.85;;
11197;SDS011;5655;48.744;9.162;2023-09-12T00:56:55;12.85;;;10.10;;
11197;SDS011;5655;48.744;9.162;2023-09-12T00:59:21;12.70;;;8.65;;
11197;SDS011;5655;48.744;9.162;2023-09-12T01:01:47;13.27;;;9.75;;
11197;SDS011;5655;48.744;9.162;2023-09-12T01:04:13;16.45;;;9.23;;
11197;SDS011;5655;48.744;9.162;2023-09-12T01:06:39;12.90;;;9.38;;
11197;SDS011;5655;48.744;9.162;2023-09-12T01:09:05;11.48;;;8.40;;
11197;SDS011;5655;48.744;9.162;2023-09-12T01:11:30;15.30;;;9.50;;
11197;SDS011;5655;48.744;9.162;2023-09-12T01:13:56;13.15;;;9.23;;
11197;SDS011;5655;48.744;9.162;2023-09-12T01:16:21;16.23;;;9.85;;
11197;SDS011;5655;48.744;9.162;2023-09-12T01:18:47;16.27;;;9.27;;
11197;SDS011;5655;48.744;9.162;2023-09-12T01:24:10;17.23;;;9.00;;
11197;SDS011;5655;48.744;9.162;2023-09-12T01:27:19;17.83;;;9.02;;
11197;SDS011;5655;48.744;9.162;2023-09-12T01:29:47;15.73;;;8.77;;
11197;SDS011;5655;48.744;9.162;2023-09-12T01:32:16;13.30;;;8.88;;
11197;SDS011;5655;48.744;9.162;2023-09-12T01:34:44;11.10;;;9.40;;
11197;SDS011;5655;48.744;9.162;2023-09-12T01:37:10;16.38;;;9.60;;
11197;SDS011;5655;48.744;9.162;2023-09-12T01:39:35;17.52;;;9.80;;
11197;SDS011;5655;48.744;9.162;2023-09-12T01:42:00;17.05;;;9.45;;
11197;SDS011;5655;48.744;9.162;2023-09-12T01:44:27;20.02;;;9.88;;
11197;SDS011;5655;48.744;9.162;2023-09-12T01:46:54;13.20;;;9.00;;
11197;SDS011;5655;48.744;9.162;2023-09-12T01:49:22;14.30;;;8.10;;
11197;SDS011;5655;48.744;9.162;2023-09-12T01:51:49;14.05;;;9.25;;
11197;SDS011;5655;48.744;9.162;2023-09-12T01:54:16;14.82;;;8.68;;
11197;SDS011;5655;48.744;9.162;2023-09-12T01:56:42;11.95;;;8.52;;
11197;SDS011;5655;48.744;9.162;2023-09-12T01:59:08;11.10;;;8.23;;
11197;SDS011;5655;48.744;9.162;2023-09-12T02:01:33;15.68;;;9.40;;
11197;SDS011;5655;48.744;9.162;2023-09-12T02:03:58;15.80;;;9.13;;
11197;SDS011;5655;48.744;9.162;2023-09-12T02:06:24;12.82;;;8.38;;
11197;SDS011;5655;48.744;9.162;2023-09-12T02:08:49;13.50;;;9.07;;
11197;SDS011;5655;48.744;9.162;2023-09-12T02:11:14;12.98;;;9.05;;
11197;SDS011;5655;48.744;9.162;2023-09-12T02:13:40;18.23;;;9.98;;
11197;SDS011;5655;48.744;9.162;2023-09-12T02:16:05;12.75;;;8.38;;
11197;SDS011;5655;48.744;9.162;2023-09-12T02:18:30;15.70;;;9.32;;
11197;SDS011;5655;48.744;9.162;2023-09-12T02:20:57;14.13;;;9.20;;
11197;SDS011;5655;48.744;9.162;2023-09-12T02:23:23;16.67;;;9.85;;
11197;SDS011;5655;48.744;9.162;2023-09-12T02:25:48;13.80;;;10.20;;
11197;SDS011;5655;48.744;9.162;2023-09-12T02:28:14;12.52;;;9.88;;
11197;SDS011;5655;48.744;9.162;2023-09-12T02:30:39;13.85;;;10.25;;
11197;SDS011;5655;48.744;9.162;2023-09-12T02:33:07;14.45;;;10.30;;
11197;SDS011;5655;48.744;9.162;2023-09-12T02:35:32;19.10;;;10.90;;
11197;SDS011;5655;48.744;9.162;2023-09-12T02:37:58;23.60;;;11.90;;
11197;SDS011;5655;48.744;9.162;2023-09-12T02:40:23;16.05;;;10.48;;
11197;SDS011;5655;48.744;9.162;2023-09-12T02:42:49;17.42;;;10.95;;
11197;SDS011;5655;48.744;9.162;2023-09-12T02:45:14;18.75;;;10.10;;
11197;SDS011;5655;48.744;9.162;2023-09-12T02:47:40;18.67;;;10.63;;
11197;SDS011;5655;48.744;9.162;2023-09-12T02:50:05;19.77;;;10.27;;
11197;SDS011;5655;48.744;9.162;2023-09-12T02:52:31;14.85;;;10.05;;
11197;SDS011;5655;48.744;9.162;2023-09-12T02:54:56;22.85;;;9.93;;
11197;SDS011;5655;48.744;9.162;2023-09-12T02:57:21;16.27;;;10.48;;
11197;SDS011;5655;48.744;9.162;2023-09-12T02:59:47;16.35;;;10.55;;
11197;SDS011;5655;48.744;9.162;2023-09-12T03:02:12;17.05;;;10.80;;
11197;SDS011;5655;48.744;9.162;2023-09-12T03:04:37;21.13;;;10.10;;
11197;SDS011;5655;48.744;9.162;2023-09-12T03:07:03;16.58;;;10.48;;
11197;SDS011;5655;48.744;9.162;2023-09-12T03:09:28;15.20;;;10.38;;
11197;SDS011;5655;48.744;9.162;2023-09-12T03:11:54;15.35;;;10.80;;
11197;SDS011;5655;48.744;9.162;2023-09-12T03:14:19;15.27;;;10.82;;
11197;SDS011;5655;48.744;9.162;2023-09-12T03:16:44;15.18;;;10.55;;
11197;SDS011;5655;48.744;9.162;2023-09-12T03:19:10;16.80;;;10.60;;
11197;SDS011;5655;48.744;9.162;2023-09-12T03:21:35;19.92;;;10.38;;
11197;SDS011;5655;48.744;9.162;2023-09-12T03:24:00;13.55;;;10.55;;
11197;SDS011;5655;48.744;9.162;2023-09-12T03:26:25;14.18;;;11.75;;
11197;SDS011;5655;48.744;9.162;2023-09-12T03:28:51;14.40;;;10.23;;
11197;SDS011;5655;48.744;9.162;2023-09-12T03:31:17;15.50;;;9.88;;
11197;SDS011;5655;48.744;9.162;2023-09-12T03:33:42;15.20;;;10.85;;
11197;SDS011;5655;48.744;9.162;2023-09-12T03:36:12;18.33;;;9.85;;
11197;SDS011;5655;48.744;9.162;2023-09-12T03:38:38;14.07;;;10.75;;
11197;SDS011;5655;48.744;9.162;2023-09-12T03:41:03;12.93;;;10.50;;
11197;SDS011;5655;48.744;9.162;2023-09-12T03:43:29;17.10;;;11.52;;
11197;SDS011;5655;48.744;9.162;2023-09-12T03:45:55;17.08;;;11.52;;
11197;SDS011;5655;48.744;9.162;2023-09-12T03:48:20;16.15;;;10.65;;
11197;SDS011;5655;48.744;9.162;2023-09-12T03:50:45;14.02;;;9.85;;
11197;SDS011;5655;48.744;9.162;2023-09-12T03:53:11;14.35;;;9.75;;
11197;SDS011;5655;48.744;9.162;2023-09-12T03:55:36;15.05;;;10.10;;
11197;SDS011;5655;48.744;9.162;2023-09-12T03:58:01;16.25;;;11.02;;
11197;SDS011;5655;48.744;9.162;2023-09-12T04:00:27;14.20;;;10.05;;
11197;SDS011;5655;48.744;9.162;2023-09-12T04:02:52;11.65;;;9.38;;
11197;SDS011;5655;48.744;9.162;2023-09-12T04:05:18;15.32;;;9.93;;
11197;SDS011;5655;48.744;9.162;2023-09-12T04:07:43;13.55;;;9.48;;
11197;SDS011;5655;48.744;9.162;2023-09-12T04:10:08;16.88;;;10.43;;
11197;SDS011;5655;48.744;9.162;2023-09-12T04:12:34;13.18;;;9.60;;
11197;SDS011;5655;48.744;9.162;2023-09-12T04:14:59;14.63;;;9.75;;
11197;SDS011;5655;48.744;9.162;2023-09-12T04:17:24;21.92;;;11.18;;
11197;SDS011;5655;48.744;9.162;2023-09-12T04:19:50;13.45;;;9.60;;
11197;SDS011;5655;48.744;9.162;2023-09-12T04:22:15;16.02;;;11.02;;
11197;SDS011;5655;48.744;9.162;2023-09-12T04:24:40;15.13;;;9.57;;
11197;SDS011;5655;48.744;9.162;2023-09-12T04:27:06;13.27;;;9.80;;
11197;SDS011;5655;48.744;9.162;2023-09-12T04:29:35;19.63;;;10.85;;
11197;SDS011;5655;48.744;9.162;2023-09-12T04:32:03;16.75;;;9.80;;
11197;SDS011;5655;48.744;9.162;2023-09-12T04:34:29;18.63;;;10.93;;
11197;SDS011;5655;48.744;9.162;2023-09-12T04:36:55;14.43;;;10.18;;
11197;SDS011;5655;48.744;9.162;2023-09-12T04:39:21;13.93;;;9.40;;
11197;SDS011;5655;48.744;9.162;2023-09-12T04:41:46;16.25;;;10.52;;
11197;SDS011;5655;48.744;9.162;2023-09-12T04:44:11;14.38;;;9.63;;
11197;SDS011;5655;48.744;9.162;2023-09-12T04:46:37;14.75;;;9.25;;
11197;SDS011;5655;48.744;9.162;2023-09-12T04:49:02;15.35;;;9.48;;
11197;SDS011;5655;48.744;9.162;2023-09-12T04:51:28;12.18;;;8.98;;
11197;SDS011;5655;48.744;9.162;2023-09-12T04:53:53;17.98;;;9.52;;
11197;SDS011;5655;48.744;9.162;2023-09-12T04:56:18;15.40;;;10.38;;
11197;SDS011;5655;48.744;9.162;2023-09-12T04:58:44;14.30;;;9.13;;
11197;SDS011;5655;48.744;9.162;2023-09-12T05:01:09;15.13;;;9.82;;
11197;SDS011;5655;48.744;9.162;2023-09-12T05:03:35;14.95;;;9.60;;
11197;SDS011;5655;48.744;9.162;2023-09-12T05:06:00;15.05;;;9.90;;
11197;SDS011;5655;48.744;9.162;2023-09-12T05:08:26;18.85;;;10.00;;
11197;SDS011;5655;48.744;9.162;2023-09-12T05:10:52;14.77;;;9.52;;
11197;SDS011;5655;48.744;9.162;2023-09-12T05:13:17;17.77;;;9.93;;
11197;SDS011;5655;48.744;9.162;2023-09-12T05:15:43;15.35;;;9.85;;
11197;SDS011;5655;48.744;9.162;2023-09-12T05:18:08;15.75;;;10.20;;
11197;SDS011;5655;48.744;9.162;2023-09-12T05:20:34;19.70;;;9.60;;
11197;SDS011;5655;48.744;9.162;2023-09-12T05:22:59;15.30;;;9.63;;
11197;SDS011;5655;48.744;9.162;2023-09-12T05:25:25;12.80;;;9.75;;
11197;SDS011;5655;48.744;9.162;2023-09-12T05:27:52;12.30;;;9.68;;
11197;SDS011;5655;48.744;9.162;2023-09-12T05:30:17;14.23;;;10.50;;
11197;SDS011;5655;48.744;9.162;2023-09-12T05:32:43;16.38;;;10.68;;
11197;SDS011;5655;48.744;9.162;2023-09-12T05:35:08;18.15;;;9.73;;
11197;SDS011;5655;48.744;9.162;2023-09-12T05:37:33;15.55;;;9.35;;
11197;SDS011;5655;48.744;9.162;2023-09-12T05:39:59;13.27;;;9.93;;
11197;SDS011;5655;48.744;9.162;2023-09-12T05:42:24;15.45;;;10.00;;
11197;SDS011;5655;48.744;9.162;2023-09-12T05:44:49;14.43;;;9.55;;
11197;SDS011;5655;48.744;9.162;2023-09-12T05:47:18;14.93;;;10.07;;
11197;SDS011;5655;48.744;9.162;2023-09-12T05:49:44;15.80;;;9.98;;
11197;SDS011;5655;48.744;9.162;2023-09-12T05:52:09;17.05;;;10.57;;
11197;SDS011;5655;48.744;9.162;2023-09-12T05:54:36;15.77;;;9.48;;
11197;SDS011;5655;48.744;9.162;2023-09-12T05:57:01;11.02;;;9.32;;
11197;SDS011;5655;48.744;9.162;2023-09-12T05:59:27;12.68;;;9.32;;
11197;SDS011;5655;48.744;9.162;2023-09-12T06:01:53;13.18;;;9.25;;
11197;SDS011;5655;48.744;9.162;2023-09-12T06:04:18;15.00;;;9.38;;
11197;SDS011;5655;48.744;9.162;2023-09-12T06:06:43;11.13;;;9.15;;
11197;SDS011;5655;48.744;9.162;2023-09-12T06:09:09;14.27;;;10.23;;
11197;SDS011;5655;48.744;9.162;2023-09-12T06:11:35;16.17;;;10.80;;
11197;SDS011;5655;48.744;9.162;2023-09-12T06:14:00;11.55;;;8.80;;
11197;SDS011;5655;48.744;9.162;2023-09-12T06:16:25;11.48;;;9.13;;
11197;SDS011;5655;48.744;9.162;2023-09-12T06:18:51;11.20;;;9.05;;
11197;SDS011;5655;48.744;9.162;2023-09-12T06:21:18;14.57;;;9.65;;
11197;SDS011;5655;48.744;9.162;2023-09-12T06:23:44;13.35;;;9.27;;
11197;SDS011;5655;48.744;9.162;2023-09-12T06:26:09;13.45;;;9.00;;
11197;SDS011;5655;48.744;9.162;2023-09-12T06:28:34;14.18;;;9.27;;
11197;SDS011;5655;48.744;9.162;2023-09-12T06:31:00;13.48;;;9.40;;
11197;SDS011;5655;48.744;9.162;2023-09-12T06:33:25;14.20;;;9.13;;
11197;SDS011;5655;48.744;9.162;2023-09-12T06:35:51;10.93;;;8.40;;
11197;SDS011;5655;48.744;9.162;2023-09-12T06:38:18;12.25;;;9.48;;
11197;SDS011;5655;48.744;9.162;2023-09-12T06:40:44;11.15;;;8.25;;
11197;SDS011;5655;48.744;9.162;2023-09-12T06:43:09;12.50;;;8.88;;
11197;SDS011;5655;48.744;9.162;2023-09-12T06:45:34;14.68;;;9.20;;
11197;SDS011;5655;48.744;9.162;2023-09-12T06:48:02;10.63;;;8.27;;
11197;SDS011;5655;48.744;9.162;2023-09-12T06:50:28;16.05;;;8.98;;
11197;SDS011;5655;48.744;9.162;2023-09-12T06:52:54;11.95;;;9.02;;
11197;SDS011;5655;48.744;9.162;2023-09-12T06:55:19;13.85;;;8.05;;
11197;SDS011;5655;48.744;9.162;2023-09-12T06:57:44;10.02;;;8.52;;
11197;SDS011;5655;48.744;9.162;2023-09-12T07:00:11;10.82;;;7.80;;
11197;SDS011;5655;48.744;9.162;2023-09-12T07:02:37;10.68;;;8.50;;
11197;SDS011;5655;48.744;9.162;2023-09-12T07:05:02;12.85;;;9.35;;
11197;SDS011;5655;48.744;9.162;2023-09-12T07:07:28;11.05;;;8.50;;
11197;SDS011;5655;48.744;9.162;2023-09-12T07:09:54;10.35;;;8.40;;
11197;SDS011;5655;48.744;9.162;2023-09-12T07:12:19;11.82;;;8.90;;
11197;SDS011;5655;48.744;9.162;2023-09-12T07:14:45;10.65;;;8.15;;
11197;SDS011;5655;48.744;9.162;2023-09-12T07:17:10;12.10;;;8.82;;
11197;SDS011;5655;48.744;9.162;2023-09-12T07:19:35;11.43;;;8.63;;
11197;SDS011;5655;48.744;9.162;2023-09-12T07:22:01;11.43;;;9.02;;
11197;SDS011;5655;48.744;9.162;2023-09-12T07:24:27;13.65;;;8.93;;
11197;SDS011;5655;48.744;9.162;2023-09-12T07:26:52;11.98;;;8.63;;
11197;SDS011;5655;48.744;9.162;2023-09-12T07:29:18;9.82;;;8.32;;
11197;SDS011;5655;48.744;9.162;2023-09-12T07:31:43;12.13;;;9.38;;
11197;SDS011;5655;48.744;9.162;2023-09-12T07:34:08;10.43;;;8.65;;
11197;SDS011;5655;48.744;9.162;2023-09-12T07:36:34;10.48;;;8.40;;
11197;SDS011;5655;48.744;9.162;2023-09-12T07:39:00;11.48;;;8.38;;
11197;SDS011;5655;48.744;9.162;2023-09-12T07:41:26;10.50;;;8.57;;
11197;SDS011;5655;48.744;9.162;2023-09-12T07:43:51;11.80;;;9.20;;
11197;SDS011;5655;48.744;9.162;2023-09-12T07:46:16;13.25;;;8.02;;
11197;SDS011;5655;48.744;9.162;2023-09-12T07:48:41;11.30;;;7.95;;
11197;SDS011;5655;48.744;9.162;2023-09-12T07:51:16;17.02;;;8.57;;
11197;SDS011;5655;48.744;9.162;2023-09-12T07:53:42;11.13;;;9.35;;
11197;SDS011;5655;48.744;9.162;2023-09-12T07:56:08;11.73;;;8.70;;
11197;SDS011;5655;48.744;9.162;2023-09-12T07:58:37;10.75;;;9.20;;
11197;SDS011;5655;48.744;9.162;2023-09-12T08:01:06;11.70;;;9.43;;
11197;SDS011;5655;48.744;9.162;2023-09-12T08:03:33;17.05;;;9.52;;
11197;SDS011;5655;48.744;9.162;2023-09-12T08:05:59;11.70;;;9.45;;
11197;SDS011;5655;48.744;9.162;2023-09-12T08:08:24;11.88;;;9.20;;
11197;SDS011;5655;48.744;9.162;2023-09-12T08:10:49;15.30;;;8.50;;
11197;SDS011;5655;48.744;9.162;2023-09-12T08:13:15;9.55;;;8.48;;
11197;SDS011;5655;48.744;9.162;2023-09-12T08:15:40;11.63;;;8.57;;
11197;SDS011;5655;48.744;9.162;2023-09-12T08:18:06;10.82;;;8.70;;
11197;SDS011;5655;48.744;9.162;2023-09-12T08:20:31;10.52;;;8.70;;
11197;SDS011;5655;48.744;9.162;2023-09-12T08:22:56;10.18;;;8.25;;
11197;SDS011;5655;48.744;9.162;2023-09-12T08:25:22;11.45;;;7.97;;
11197;SDS011;5655;48.744;9.162;2023-09-12T08:27:47;10.30;;;8.70;;
11197;SDS011;5655;48.744;9.162;2023-09-12T08:30:12;11.15;;;8.77;;
11197;SDS011;5655;48.744;9.162;2023-09-12T08:32:39;10.70;;;8.48;;
11197;SDS011;5655;48.744;9.162;2023-09-12T08:35:08;12.40;;;8.27;;
11197;SDS011;5655;48.744;9.162;2023-09-12T08:37:34;10.43;;;8.88;;
11197;SDS011;5655;48.744;9.162;2023-09-12T08:39:59;12.48;;;9.10;;
11197;SDS011;5655;48.744;9.162;2023-09-12T08:42:26;11.80;;;9.10;;
11197;SDS011;5655;48.744;9.162;2023-09-12T08:44:54;10.90;;;9.43;;
11197;SDS011;5655;48.744;9.162;2023-09-12T08:47:20;11.60;;;9.23;;
11197;SDS011;5655;48.744;9.162;2023-09-12T08:49:48;10.68;;;8.98;;
11197;SDS011;5655;48.744;9.162;2023-09-12T08:52:13;13.73;;;8.73;;
11197;SDS011;5655;48.744;9.162;2023-09-12T08:54:38;10.18;;;8.90;;
11197;SDS011;5655;48.744;9.162;2023-09-12T08:57:04;11.82;;;8.77;;
11197;SDS011;5655;48.744;9.162;2023-09-12T08:59:34;10.23;;;8.52;;
11197;SDS011;5655;48.744;9.162;2023-09-12T09:02:00;11.20;;;9.20;;
11197;SDS011;5655;48.744;9.162;2023-09-12T09:04:28;9.60;;;8.70;;
11197;SDS011;5655;48.744;9.162;2023-09-12T09:06:55;12.75;;;8.38;;
11197;SDS011;5655;48.744;9.162;2023-09-12T09:09:22;14.38;;;9.00;;
11197;SDS011;5655;48.744;9.162;2023-09-12T09:11:49;12.77;;;9.13;;
11197;SDS011;5655;48.744;9.162;2023-09-12T09:14:14;13.10;;;8.75;;
11197;SDS011;5655;48.744;9.162;2023-09-12T09:16:40;15.00;;;9.38;;
11197;SDS011;5655;48.744;9.162;2023-09-12T09:19:05;13.82;;;8.95;;
11197;SDS011;5655;48.744;9.162;2023-09-12T09:21:34;15.07;;;8.90;;
11197;SDS011;5655;48.744;9.162;2023-09-12T09:24:01;9.32;;;8.30;;
11197;SDS011;5655;48.744;9.162;2023-09-12T09:26:48;9.65;;;8.65;;
11197;SDS011;5655;48.744;9.162;2023-09-12T09:29:19;11.27;;;9.05;;
11197;SDS011;5655;48.744;9.162;2023-09-12T09:31:46;11.70;;;8.68;;
11197;SDS011;5655;48.744;9.162;2023-09-12T09:34:16;11.30;;;8.05;;
11197;SDS011;5655;48.744;9.162;2023-09-12T09:36:53;11.13;;;8.27;;
11197;SDS011;5655;48.744;9.162;2023-09-12T09:39:20;20.30;;;8.38;;
11197;SDS011;5655;48.744;9.162;2023-09-12T09:41:51;9.55;;;8.02;;
11197;SDS011;5655;48.744;9.162;2023-09-12T09:44:18;10.60;;;7.28;;
11197;SDS011;5655;48.744;9.162;2023-09-12T09:46:46;10.98;;;7.30;;
11197;SDS011;5655;48.744;9.162;2023-09-12T09:49:16;13.57;;;7.53;;
11197;SDS011;5655;48.744;9.162;2023-09-12T09:51:44;16.90;;;8.30;;
11197;SDS011;5655;48.744;9.162;2023-09-12T09:54:11;14.90;;;7.57;;
11197;SDS011;5655;48.744;9.162;2023-09-12T09:56:50;10.45;;;7.65;;
11197;SDS011;5655;48.744;9.162;2023-09-12T09:59:18;13.30;;;7.78;;
11197;SDS011;5655;48.744;9.162;2023-09-12T10:01:48;10.93;;;8.15;;
11197;SDS011;5655;48.744;9.162;2023-09-12T10:04:14;10.80;;;8.27;;
11197;SDS011;5655;48.744;9.162;2023-09-12T10:06:41;10.30;;;7.60;;
11197;SDS011;5655;48.744;9.162;2023-09-12T10:09:09;10.13;;;8.32;;
11197;SDS011;5655;48.744;9.162;2023-09-12T10:11:37;11.40;;;8.02;;
11197;SDS011;5655;48.744;9.162;2023-09-12T10:14:04;10.60;;;6.97;;
11197;SDS011;5655;48.744;9.162;2023-09-12T10:16:31;14.00;;;7.68;;
11197;SDS011;5655;48.744;9.162;2023-09-12T10:24:49;9.75;;;7.22;;
11197;SDS011;5655;48.744;9.162;2023-09-12T10:27:15;10.82;;;7.82;;
11197;SDS011;5655;48.744;9.162;2023-09-12T10:29:41;11.55;;;7.78;;
11197;SDS011;5655;48.744;9.162;2023-09-12T10:32:07;11.95;;;7.63;;
11197;SDS011;5655;48.744;9.162;2023-09-12T10:34:33;12.75;;;8.18;;
11197;SDS011;5655;48.744;9.162;2023-09-12T10:37:01;9.77;;;7.60;;
11197;SDS011;5655;48.744;9.162;2023-09-12T10:39:30;12.57;;;7.80;;
11197;SDS011;5655;48.744;9.162;2023-09-12T10:41:57;13.65;;;7.82;;
11197;SDS011;5655;48.744;9.162;2023-09-12T10:44:23;12.38;;;8.82;;
11197;SDS011;5655;48.744;9.162;2023-09-12T10:46:50;14.35;;;8.80;;
11197;SDS011;5655;48.744;9.162;2023-09-12T10:49:17;12.48;;;8.73;;
11197;SDS011;5655;48.744;9.162;2023-09-12T10:51:44;12.07;;;8.68;;
11197;SDS011;5655;48.744;9.162;2023-09-12T10:54:14;13.18;;;8.07;;
11197;SDS011;5655;48.744;9.162;2023-09-12T10:56:41;13.45;;;8.88;;
11197;SDS011;5655;48.744;9.162;2023-09-12T11:01:53;8.88;;;7.72;;
11197;SDS011;5655;48.744;9.162;2023-09-12T11:06:43;13.20;;;7.60;;
11197;SDS011;5655;48.744;9.162;2023-09-12T11:09:20;8.27;;;5.97;;
11197;SDS011;5655;48.744;9.162;2023-09-12T11:11:47;11.40;;;6.65;;
11197;SDS011;5655;48.744;9.162;2023-09-12T11:14:13;10.90;;;6.95;;
11197;SDS011;5655;48.744;9.162;2023-09-12T11:16:42;9.32;;;6.97;;
11197;SDS011;5655;48.744;9.162;2023-09-12T11:19:28;10.55;;;6.65;;
11197;SDS011;5655;48.744;9.162;2023-09-12T11:21:53;11.05;;;6.72;;
11197;SDS011;5655;48.744;9.162;2023-09-12T11:24:20;9.20;;;6.75;;
11197;SDS011;5655;48.744;9.162;2023-09-12T11:26:52;10.52;;;6.47;;
11197;SDS011;5655;48.744;9.162;2023-09-12T11:29:22;7.68;;;6.88;;
11197;SDS011;5655;48.744;9.162;2023-09-12T11:31:54;10.27;;;7.00;;
11197;SDS011;5655;48.744;9.162;2023-09-12T11:34:27;8.00;;;6.65;;
11197;SDS011;5655;48.744;9.162;2023-09-12T11:36:56;12.93;;;7.75;;
11197;SDS011;5655;48.744;9.162;2023-09-12T11:39:27;8.23;;;6.45;;
11197;SDS011;5655;48.744;9.162;2023-09-12T11:41:55;8.48;;;6.00;;
11197;SDS011;5655;48.744;9.162;2023-09-12T11:44:21;10.00;;;6.35;;
11197;SDS011;5655;48.744;9.162;2023-09-12T11:46:48;12.35;;;6.55;;
11197;SDS011;5655;48.744;9.162;2023-09-12T11:49:17;9.75;;;5.88;;
11197;SDS011;5655;48.744;9.162;2023-09-12T11:51:47;8.07;;;6.18;;
11197;SDS011;5655;48.744;9.162;2023-09-12T11:54:14;12.75;;;5.80;;
11197;SDS011;5655;48.744;9.162;2023-09-12T11:56:40;9.43;;;6.68;;
11197;SDS011;5655;48.744;9.162;2023-09-12T11:59:06;9.98;;;6.07;;
11197;SDS011;5655;48.744;9.162;2023-09-12T12:01:31;7.60;;;6.63;;
11197;SDS011;5655;48.744;9.162;2023-09-12T12:03:57;11.00;;;6.28;;
11197;SDS011;5655;48.744;9.162;2023-09-12T12:06:23;6.95;;;5.55;;
11197;SDS011;5655;48.744;9.162;2023-09-12T12:08:48;11.93;;;6.38;;
11197;SDS011;5655;48.744;9.162;2023-09-12T12:11:13;7.30;;;6.18;;
11197;SDS011;5655;48.744;9.162;2023-09-12T12:13:39;6.45;;;5.35;;
11197;SDS011;5655;48.744;9.162;2023-09-12T12:16:16;7.78;;;6.10;;
11197;SDS011;5655;48.744;9.162;2023-09-12T12:18:42;7.32;;;5.90;;
11197;SDS011;5655;48.744;9.162;2023-09-12T12:21:07;9.48;;;5.70;;
11197;SDS011;5655;48.744;9.162;2023-09-12T12:23:33;9.52;;;6.00;;
11197;SDS011;5655;48.744;9.162;2023-09-12T12:26:02;7.97;;;6.07;;
11197;SDS011;5655;48.744;9.162;2023-09-12T12:28:28;12.82;;;6.00;;
11197;SDS011;5655;48.744;9.162;2023-09-12T12:30:55;8.38;;;5.72;;
11197;SDS011;5655;48.744;9.162;2023-09-12T12:33:20;8.45;;;6.22;;
11197;SDS011;5655;48.744;9.162;2023-09-12T12:35:46;11.48;;;6.38;;
11197;SDS011;5655;48.744;9.162;2023-09-12T12:38:12;10.82;;;7.18;;
11197;SDS011;5655;48.744;9.162;2023-09-12T12:40:38;9.95;;;6.30;;
11197;SDS011;5655;48.744;9.162;2023-09-12T12:43:15;7.85;;;6.05;;
11197;SDS011;5655;48.744;9.162;2023-09-12T12:45:51;11.75;;;6.47;;
11197;SDS011;5655;48.744;9.162;2023-09-12T12:48:17;7.38;;;5.78;;
11197;SDS011;5655;48.744;9.162;2023-09-12T12:50:55;7.95;;;6.05;;
11197;SDS011;5655;48.744;9.162;2023-09-12T12:53:36;8.05;;;6.03;;
11197;SDS011;5655;48.744;9.162;2023-09-12T12:56:05;7.30;;;5.55;;
11197;SDS011;5655;48.744;9.162;2023-09-12T12:58:31;7.70;;;6.07;;
11197;SDS011;5655;48.744;9.162;2023-09-12T13:00:56;8.95;;;6.25;;
11197;SDS011;5655;48.744;9.162;2023-09-12T13:03:21;13.23;;;6.70;;
11197;SDS011;5655;48.744;9.162;2023-09-12T13:05:47;11.30;;;6.13;;
11197;SDS011;5655;48.744;9.162;2023-09-12T13:08:12;14.48;;;5.75;;
11197;SDS011;5655;48.744;9.162;2023-09-12T13:10:37;13.30;;;6.72;;
11197;SDS011;5655;48.744;9.162;2023-09-12T13:13:03;11.00;;;5.80;;
11197;SDS011;5655;48.744;9.162;2023-09-12T13:15:29;13.57;;;7.03;;
11197;SDS011;5655;48.744;9.162;2023-09-12T13:17:54;8.90;;;5.68;;
11197;SDS011;5655;48.744;9.162;2023-09-12T13:20:20;10.57;;;6.75;;
11197;SDS011;5655;48.744;9.162;2023-09-12T13:22:45;10.65;;;6.22;;
11197;SDS011;5655;48.744;9.162;2023-09-12T13:25:10;9.38;;;5.75;;
11197;SDS011;5655;48.744;9.162;2023-09-12T13:27:36;7.25;;;6.40;;
11197;SDS011;5655;48.744;9.162;2023-09-12T13:30:01;10.60;;;5.80;;
11197;SDS011;5655;48.744;9.162;2023-09-12T13:32:28;7.63;;;5.68;;
11197;SDS011;5655;48.744;9.162;2023-09-12T13:34:54;10.30;;;5.53;;
11197;SDS011;5655;48.744;9.162;2023-09-12T13:37:19;10.68;;;5.75;;
11197;SDS011;5655;48.744;9.162;2023-09-12T13:39:46;11.93;;;5.85;;
11197;SDS011;5655;48.744;9.162;2023-09-12T13:42:14;9.50;;;6.18;;
11197;SDS011;5655;48.744;9.162;2023-09-12T13:44:43;10.25;;;6.10;;
11197;SDS011;5655;48.744;9.162;2023-09-12T13:47:09;7.88;;;5.90;;
11197;SDS011;5655;48.744;9.162;2023-09-12T13:49:34;10.18;;;6.32;;
11197;SDS011;5655;48.744;9.162;2023-09-12T13:51:59;12.48;;;5.95;;
11197;SDS011;5655;48.744;9.162;2023-09-12T13:54:24;15.13;;;7.43;;
11197;SDS011;5655;48.744;9.162;2023-09-12T13:56:50;8.00;;;5.82;;
11197;SDS011;5655;48.744;9.162;2023-09-12T13:59:15;9.98;;;5.55;;
11197;SDS011;5655;48.744;9.162;2023-09-12T14:01:41;11.30;;;6.72;;
11197;SDS011;5655;48.744;9.162;2023-09-12T14:04:06;8.55;;;6.25;;
11197;SDS011;5655;48.744;9.162;2023-09-12T14:06:32;9.93;;;6.05;;
11197;SDS011;5655;48.744;9.162;2023-09-12T14:08:59;8.73;;;6.05;;
11197;SDS011;5655;48.744;9.162;2023-09-12T14:11:24;12.57;;;6.20;;
11197;SDS011;5655;48.744;9.162;2023-09-12T14:13:49;10.55;;;6.10;;
11197;SDS011;5655;48.744;9.162;2023-09-12T14:16:14;8.38;;;6.15;;
11197;SDS011;5655;48.744;9.162;2023-09-12T14:18:40;10.85;;;7.28;;
11197;SDS011;5655;48.744;9.162;2023-09-12T14:21:05;10.52;;;6.53;;
11197;SDS011;5655;48.744;9.162;2023-09-12T14:23:31;8.85;;;6.90;;
11197;SDS011;5655;48.744;9.162;2023-09-12T14:25:56;8.75;;;6.82;;
11197;SDS011;5655;48.744;9.162;2023-09-12T14:28:21;9.38;;;6.20;;
11197;SDS011;5655;48.744;9.162;2023-09-12T14:30:47;9.30;;;6.63;;
11197;SDS011;5655;48.744;9.162;2023-09-12T14:33:14;9.88;;;6.30;;
11197;SDS011;5655;48.744;9.162;2023-09-12T14:35:40;11.85;;;6.60;;
11197;SDS011;5655;48.744;9.162;2023-09-12T14:38:09;10.63;;;6.70;;
11197;SDS011;5655;48.744;9.162;2023-09-12T14:40:34;12.10;;;6.60;;
11197;SDS011;5655;48.744;9.162;2023-09-12T14:43:00;12.10;;;6.28;;
11197;SDS011;5655;48.744;9.162;2023-09-12T14:45:27;9.20;;;7.32;;
11197;SDS011;5655;48.744;9.162;2023-09-12T14:47:52;9.05;;;6.72;;
11197;SDS011;5655;48.744;9.162;2023-09-12T14:50:20;9.40;;;7.60;;
11197;SDS011;5655;48.744;9.162;2023-09-12T14:52:45;11.45;;;7.55;;
11197;SDS011;5655;48.744;9.162;2023-09-12T14:55:11;10.98;;;6.55;;
11197;SDS011;5655;48.744;9.162;2023-09-12T14:57:36;9.43;;;6.70;;